sensor_id;sensor_type;location;lat;lon;timestamp;temperature;humidity
9437;DHT22;4757;59.334;18.034;2023-06-22T00:00:02;19.60;99.90
9437;DHT22;4757;59.334;18.034;2023-06-22T00:02:35;19.60;99.90
9437;DHT22;4757;59.334;18.034;2023-06-22T00:05:02;19.60;99.90
9437;DHT22;4757;59.334;18.034;2023-06-22T00:07:29;19.60;99.90
9437;DHT22;4757;59.334;18.034;2023-06-22T00:09:56;19.60;99.90
9437;DHT22;4757;59.334;18.034;2023-06-22T00:12:23;19.50;99.90
9437;DHT22;4757;59.334;18.034;2023-06-22T00:14:50;19.60;99.90
9437;DHT22;4757;59.334;18.034;2023-06-22T00:17:17;19.60;99.90
9437;DHT22;4757;59.334;18.034;2023-06-22T00:19:47;19.50;99.90
9437;DHT22;4757;59.334;18.034;2023-06-22T00:22:14;19.60;99.90
9437;DHT22;4757;59.334;18.034;2023-06-22T00:24:41;19.50;99.90
9437;DHT22;4757;59.334;18.034;2023-06-22T00:27:08;19.60;99.90
9437;DHT22;4757;59.334;18.034;2023-06-22T00:29:35;19.70;99.90
9437;DHT22;4757;59.334;18.034;2023-06-22T00:32:02;19.60;99.90
9437;DHT22;4757;59.334;18.034;2023-06-22T00:34:30;19.60;99.90
9437;DHT22;4757;59.334;18.034;2023-06-22T00:36:57;19.70;99.90
9437;DHT22;4757;59.334;18.034;2023-06-22T00:39:26;19.60;99.90
9437;DHT22;4757;59.334;18.034;2023-06-22T00:41:53;19.60;99.90
9437;DHT22;4757;59.334;18.034;2023-06-22T00:44:20;19.60;99.90
9437;DHT22;4757;59.334;18.034;2023-06-22T00:46:47;19.60;99.90
9437;DHT22;4757;59.334;18.034;2023-06-22T00:49:14;19.50;99.90
9437;DHT22;4757;59.334;18.034;2023-06-22T00:51:41;19.60;99.90
9437;DHT22;4757;59.334;18.034;2023-06-22T00:54:12;19.60;99.90
9437;DHT22;4757;59.334;18.034;2023-06-22T00:56:43;19.50;99.90
9437;DHT22;4757;59.334;18.034;2023-06-22T00:59:10;19.50;99.90
9437;DHT22;4757;59.334;18.034;2023-06-22T01:01:39;19.60;99.90
9437;DHT22;4757;59.334;18.034;2023-06-22T01:04:07;19.60;99.90
9437;DHT22;4757;59.334;18.034;2023-06-22T01:06:39;19.60;99.90
9437;DHT22;4757;59.334;18.034;2023-06-22T01:09:21;19.60;99.90
9437;DHT22;4757;59.334;18.034;2023-06-22T01:11:54;19.60;99.90
9437;DHT22;4757;59.334;18.034;2023-06-22T01:14:41;19.70;99.90
9437;DHT22;4757;59.334;18.034;2023-06-22T01:17:12;19.50;99.90
9437;DHT22;4757;59.334;18.034;2023-06-22T01:19:49;19.40;99.90
9437;DHT22;4757;59.334;18.034;2023-06-22T01:22:21;19.50;99.90
9437;DHT22;4757;59.334;18.034;2023-06-22T01:25:13;19.60;99.90
9437;DHT22;4757;59.334;18.034;2023-06-22T01:30:18;19.60;99.90
9437;DHT22;4757;59.334;18.034;2023-06-22T01:32:47;19.50;99.90
9437;DHT22;4757;59.334;18.034;2023-06-22T01:35:15;19.60;99.90
9437;DHT22;4757;59.334;18.034;2023-06-22T01:37:42;19.60;99.90
9437;DHT22;4757;59.334;18.034;2023-06-22T01:40:10;19.60;99.90
9437;DHT22;4757;59.334;18.034;2023-06-22T01:42:38;19.60;99.90
9437;DHT22;4757;59.334;18.034;2023-06-22T01:45:06;19.50;99.90
9437;DHT22;4757;59.334;18.034;2023-06-22T01:47:34;19.50;99.90
9437;DHT22;4757;59.334;18.034;2023-06-22T01:50:01;19.50;99.90
9437;DHT22;4757;59.334;18.034;2023-06-22T01:52:28;19.50;99.90
9437;DHT22;4757;59.334;18.034;2023-06-22T01:54:55;19.40;99.90
9437;DHT22;4757;59.334;18.034;2023-06-22T01:57:24;19.50;99.90
9437;DHT22;4757;59.334;18.034;2023-06-22T02:00:04;19.50;99.90
9437;DHT22;4757;59.334;18.034;2023-06-22T02:02:36;19.50;99.90
9437;DHT22;4757;59.334;18.034;2023-06-22T02:05:08;19.50;99.90
9437;DHT22;4757;59.334;18.034;2023-06-22T02:10:40;19.50;99.90
9437;DHT22;4757;59.334;18.034;2023-06-22T02:13:09;19.50;99.90
9437;DHT22;4757;59.334;18.034;2023-06-22T02:15:37;19.50;99.90
9437;DHT22;4757;59.334;18.034;2023-06-22T02:18:05;19.40;99.90
9437;DHT22;4757;59.334;18.034;2023-06-22T02:20:32;19.50;99.90
9437;DHT22;4757;59.334;18.034;2023-06-22T02:22:59;19.50;99.90
9437;DHT22;4757;59.334;18.034;2023-06-22T02:25:26;19.50;99.90
9437;DHT22;4757;59.334;18.034;2023-06-22T02:27:53;19.40;99.90
9437;DHT22;4757;59.334;18.034;2023-06-22T02:30:20;19.40;99.90
9437;DHT22;4757;59.334;18.034;2023-06-22T02:32:47;19.40;99.90
9437;DHT22;4757;59.334;18.034;2023-06-22T02:35:14;19.30;99.90
9437;DHT22;4757;59.334;18.034;2023-06-22T02:37:41;19.40;99.90
9437;DHT22;4757;59.334;18.034;2023-06-22T02:40:09;19.40;99.90
9437;DHT22;4757;59.334;18.034;2023-06-22T02:42:37;19.20;99.90
9437;DHT22;4757;59.334;18.034;2023-06-22T02:45:05;19.30;99.90
9437;DHT22;4757;59.334;18.034;2023-06-22T02:47:32;19.40;99.90
9437;DHT22;4757;59.334;18.034;2023-06-22T02:49:59;19.40;99.90
9437;DHT22;4757;59.334;18.034;2023-06-22T02:52:27;19.40;99.90
9437;DHT22;4757;59.334;18.034;2023-06-22T02:54:56;19.40;99.90
9437;DHT22;4757;59.334;18.034;2023-06-22T02:57:26;19.40;99.90
9437;DHT22;4757;59.334;18.034;2023-06-22T02:59:53;19.30;99.90
9437;DHT22;4757;59.334;18.034;2023-06-22T03:02:20;19.30;99.90
9437;DHT22;4757;59.334;18.034;2023-06-22T03:04:48;19.30;99.90
9437;DHT22;4757;59.334;18.034;2023-06-22T03:07:16;19.30;99.90
9437;DHT22;4757;59.334;18.034;2023-06-22T03:09:44;19.30;99.90
9437;DHT22;4757;59.334;18.034;2023-06-22T03:12:11;19.30;99.90
9437;DHT22;4757;59.334;18.034;2023-06-22T03:14:38;19.30;99.90
9437;DHT22;4757;59.334;18.034;2023-06-22T03:17:05;19.30;99.90
9437;DHT22;4757;59.334;18.034;2023-06-22T03:19:32;19.30;99.90
9437;DHT22;4757;59.334;18.034;2023-06-22T03:22:00;19.30;99.90
9437;DHT22;4757;59.334;18.034;2023-06-22T03:24:27;19.30;99.90
9437;DHT22;4757;59.334;18.034;2023-06-22T03:26:57;19.40;99.90
9437;DHT22;4757;59.334;18.034;2023-06-22T03:29:24;19.30;99.90
9437;DHT22;4757;59.334;18.034;2023-06-22T03:31:55;19.30;99.90
9437;DHT22;4757;59.334;18.034;2023-06-22T03:34:22;19.40;99.90
9437;DHT22;4757;59.334;18.034;2023-06-22T03:36:49;19.30;99.90
9437;DHT22;4757;59.334;18.034;2023-06-22T03:39:16;19.30;99.90
9437;DHT22;4757;59.334;18.034;2023-06-22T03:41:43;19.40;99.90
9437;DHT22;4757;59.334;18.034;2023-06-22T03:44:10;19.50;99.90
9437;DHT22;4757;59.334;18.034;2023-06-22T03:46:39;19.40;99.90
9437;DHT22;4757;59.334;18.034;2023-06-22T03:49:06;19.50;99.90
9437;DHT22;4757;59.334;18.034;2023-06-22T03:51:33;19.50;99.90
9437;DHT22;4757;59.334;18.034;2023-06-22T03:54:00;19.50;99.90
9437;DHT22;4757;59.334;18.034;2023-06-22T03:56:28;19.50;99.90
9437;DHT22;4757;59.334;18.034;2023-06-22T03:58:54;19.60;99.90
9437;DHT22;4757;59.334;18.034;2023-06-22T04:01:21;19.60;99.90
9437;DHT22;4757;59.334;18.034;2023-06-22T04:03:48;19.50;99.90
9437;DHT22;4757;59.334;18.034;2023-06-22T04:06:16;19.40;99.90
9437;DHT22;4757;59.334;18.034;2023-06-22T04:08:45;19.50;99.90
9437;DHT22;4757;59.334;18.034;2023-06-22T04:11:15;19.60;99.90
9437;DHT22;4757;59.334;18.034;2023-06-22T04:13:41;19.60;99.90
9437;DHT22;4757;59.334;18.034;2023-06-22T04:16:09;19.60;99.90
9437;DHT22;4757;59.334;18.034;2023-06-22T04:18:36;19.60;99.90
9437;DHT22;4757;59.334;18.034;2023-06-22T04:21:03;19.60;99.90
9437;DHT22;4757;59.334;18.034;2023-06-22T04:23:30;19.50;99.90
9437;DHT22;4757;59.334;18.034;2023-06-22T04:25:57;19.50;99.90
9437;DHT22;4757;59.334;18.034;2023-06-22T04:28:26;19.60;99.90
9437;DHT22;4757;59.334;18.034;2023-06-22T04:30:54;19.60;99.90
9437;DHT22;4757;59.334;18.034;2023-06-22T04:33:25;19.60;99.90
9437;DHT22;4757;59.334;18.034;2023-06-22T04:35:52;19.60;99.90
9437;DHT22;4757;59.334;18.034;2023-06-22T04:38:19;19.60;99.90
9437;DHT22;4757;59.334;18.034;2023-06-22T04:40:48;19.70;99.90
9437;DHT22;4757;59.334;18.034;2023-06-22T04:43:15;19.70;99.90
9437;DHT22;4757;59.334;18.034;2023-06-22T04:45:42;19.80;99.90
9437;DHT22;4757;59.334;18.034;2023-06-22T04:48:10;19.80;99.90
9437;DHT22;4757;59.334;18.034;2023-06-22T04:50:42;19.90;99.90
9437;DHT22;4757;59.334;18.034;2023-06-22T04:53:11;19.90;99.90
9437;DHT22;4757;59.334;18.034;2023-06-22T04:55:40;20.00;99.90
9437;DHT22;4757;59.334;18.034;2023-06-22T04:58:08;20.10;99.90
9437;DHT22;4757;59.334;18.034;2023-06-22T05:00:35;20.10;99.90
9437;DHT22;4757;59.334;18.034;2023-06-22T05:03:05;20.20;99.90
9437;DHT22;4757;59.334;18.034;2023-06-22T05:05:46;20.20;99.90
9437;DHT22;4757;59.334;18.034;2023-06-22T05:08:13;20.30;99.90
9437;DHT22;4757;59.334;18.034;2023-06-22T05:10:40;20.30;99.90
9437;DHT22;4757;59.334;18.034;2023-06-22T05:13:27;20.30;99.90
9437;DHT22;4757;59.334;18.034;2023-06-22T05:15:54;20.50;99.90
9437;DHT22;4757;59.334;18.034;2023-06-22T05:18:30;20.40;99.90
9437;DHT22;4757;59.334;18.034;2023-06-22T05:20:58;20.60;99.90
9437;DHT22;4757;59.334;18.034;2023-06-22T05:23:26;20.70;99.90
9437;DHT22;4757;59.334;18.034;2023-06-22T05:25:53;20.60;99.90
9437;DHT22;4757;59.334;18.034;2023-06-22T05:28:21;20.60;99.90
9437;DHT22;4757;59.334;18.034;2023-06-22T05:30:50;20.50;99.90
9437;DHT22;4757;59.334;18.034;2023-06-22T05:33:17;20.40;99.90
9437;DHT22;4757;59.334;18.034;2023-06-22T05:35:44;20.30;99.90
9437;DHT22;4757;59.334;18.034;2023-06-22T05:38:11;20.30;99.90
9437;DHT22;4757;59.334;18.034;2023-06-22T05:40:38;20.20;99.90
9437;DHT22;4757;59.334;18.034;2023-06-22T05:43:05;20.10;99.90
9437;DHT22;4757;59.334;18.034;2023-06-22T05:45:32;20.20;99.90
9437;DHT22;4757;59.334;18.034;2023-06-22T05:47:59;20.20;99.90
9437;DHT22;4757;59.334;18.034;2023-06-22T05:50:26;20.20;99.90
9437;DHT22;4757;59.334;18.034;2023-06-22T05:52:53;20.10;99.90
9437;DHT22;4757;59.334;18.034;2023-06-22T05:55:23;20.10;99.90
9437;DHT22;4757;59.334;18.034;2023-06-22T05:57:50;20.30;99.90
9437;DHT22;4757;59.334;18.034;2023-06-22T06:00:18;20.40;99.90
9437;DHT22;4757;59.334;18.034;2023-06-22T06:02:45;20.40;99.90
9437;DHT22;4757;59.334;18.034;2023-06-22T06:05:12;20.30;99.90
9437;DHT22;4757;59.334;18.034;2023-06-22T06:07:46;20.30;99.90
9437;DHT22;4757;59.334;18.034;2023-06-22T06:10:14;20.30;99.90
9437;DHT22;4757;59.334;18.034;2023-06-22T06:12:41;20.30;99.90
9437;DHT22;4757;59.334;18.034;2023-06-22T06:15:08;20.30;99.90
9437;DHT22;4757;59.334;18.034;2023-06-22T06:17:48;20.20;99.90
9437;DHT22;4757;59.334;18.034;2023-06-22T06:20:25;20.20;99.90
9437;DHT22;4757;59.334;18.034;2023-06-22T06:22:55;20.20;99.90
9437;DHT22;4757;59.334;18.034;2023-06-22T06:25:23;20.10;99.90
9437;DHT22;4757;59.334;18.034;2023-06-22T06:27:51;20.00;99.90
9437;DHT22;4757;59.334;18.034;2023-06-22T06:30:19;20.00;99.90
9437;DHT22;4757;59.334;18.034;2023-06-22T06:32:47;20.00;99.90
9437;DHT22;4757;59.334;18.034;2023-06-22T06:35:15;20.00;99.90
9437;DHT22;4757;59.334;18.034;2023-06-22T06:37:47;20.00;99.90
9437;DHT22;4757;59.334;18.034;2023-06-22T06:40:15;19.90;99.90
9437;DHT22;4757;59.334;18.034;2023-06-22T06:42:44;20.10;99.90
9437;DHT22;4757;59.334;18.034;2023-06-22T06:45:14;20.10;99.90
9437;DHT22;4757;59.334;18.034;2023-06-22T06:47:41;20.30;99.90
9437;DHT22;4757;59.334;18.034;2023-06-22T06:50:09;20.30;99.90
9437;DHT22;4757;59.334;18.034;2023-06-22T06:52:36;20.50;99.90
9437;DHT22;4757;59.334;18.034;2023-06-22T06:55:05;20.60;99.90
9437;DHT22;4757;59.334;18.034;2023-06-22T06:57:39;20.70;99.90
9437;DHT22;4757;59.334;18.034;2023-06-22T07:00:08;20.80;99.90
9437;DHT22;4757;59.334;18.034;2023-06-22T07:02:44;20.70;99.90
9437;DHT22;4757;59.334;18.034;2023-06-22T07:05:12;21.00;99.90
9437;DHT22;4757;59.334;18.034;2023-06-22T07:07:40;21.20;99.90
9437;DHT22;4757;59.334;18.034;2023-06-22T07:10:08;21.40;99.90
9437;DHT22;4757;59.334;18.034;2023-06-22T07:12:36;21.60;99.90
9437;DHT22;4757;59.334;18.034;2023-06-22T07:15:04;21.60;99.90
9437;DHT22;4757;59.334;18.034;2023-06-22T07:17:32;21.50;99.90
9437;DHT22;4757;59.334;18.034;2023-06-22T07:20:00;21.20;99.90
9437;DHT22;4757;59.334;18.034;2023-06-22T07:22:27;21.00;99.90
9437;DHT22;4757;59.334;18.034;2023-06-22T07:24:54;20.90;99.90
9437;DHT22;4757;59.334;18.034;2023-06-22T07:27:21;20.90;99.90
9437;DHT22;4757;59.334;18.034;2023-06-22T07:29:48;20.70;99.90
9437;DHT22;4757;59.334;18.034;2023-06-22T07:32:16;20.70;99.90
9437;DHT22;4757;59.334;18.034;2023-06-22T07:34:43;20.60;99.90
9437;DHT22;4757;59.334;18.034;2023-06-22T07:37:12;20.60;99.90
9437;DHT22;4757;59.334;18.034;2023-06-22T07:39:40;20.50;99.90
9437;DHT22;4757;59.334;18.034;2023-06-22T07:42:07;20.40;99.90
9437;DHT22;4757;59.334;18.034;2023-06-22T07:44:34;20.50;99.90
9437;DHT22;4757;59.334;18.034;2023-06-22T07:47:01;20.40;99.90
9437;DHT22;4757;59.334;18.034;2023-06-22T07:49:28;20.40;99.90
9437;DHT22;4757;59.334;18.034;2023-06-22T07:51:56;20.30;99.90
9437;DHT22;4757;59.334;18.034;2023-06-22T07:54:23;20.30;99.90
9437;DHT22;4757;59.334;18.034;2023-06-22T07:56:50;20.20;99.90
9437;DHT22;4757;59.334;18.034;2023-06-22T07:59:17;20.40;99.90
9437;DHT22;4757;59.334;18.034;2023-06-22T08:01:44;20.40;99.90
9437;DHT22;4757;59.334;18.034;2023-06-22T08:04:11;20.40;99.90
9437;DHT22;4757;59.334;18.034;2023-06-22T08:06:38;20.50;99.90
9437;DHT22;4757;59.334;18.034;2023-06-22T08:09:05;20.70;99.90
9437;DHT22;4757;59.334;18.034;2023-06-22T08:11:32;21.00;99.90
9437;DHT22;4757;59.334;18.034;2023-06-22T08:14:00;21.40;99.90
9437;DHT22;4757;59.334;18.034;2023-06-22T08:16:27;22.20;99.90
9437;DHT22;4757;59.334;18.034;2023-06-22T08:18:54;21.80;99.90
9437;DHT22;4757;59.334;18.034;2023-06-22T08:21:22;22.00;99.90
9437;DHT22;4757;59.334;18.034;2023-06-22T08:23:48;21.80;99.90
9437;DHT22;4757;59.334;18.034;2023-06-22T08:26:16;21.70;99.90
9437;DHT22;4757;59.334;18.034;2023-06-22T08:28:43;21.70;99.90
9437;DHT22;4757;59.334;18.034;2023-06-22T08:31:10;21.70;99.90
9437;DHT22;4757;59.334;18.034;2023-06-22T08:33:39;22.10;99.90
9437;DHT22;4757;59.334;18.034;2023-06-22T08:36:14;22.00;99.90
9437;DHT22;4757;59.334;18.034;2023-06-22T08:38:43;22.00;99.90
9437;DHT22;4757;59.334;18.034;2023-06-22T08:41:11;21.90;99.90
9437;DHT22;4757;59.334;18.034;2023-06-22T08:43:38;21.90;99.90
9437;DHT22;4757;59.334;18.034;2023-06-22T08:46:05;21.80;99.90
9437;DHT22;4757;59.334;18.034;2023-06-22T08:48:32;21.80;99.90
9437;DHT22;4757;59.334;18.034;2023-06-22T08:50:59;21.80;99.90
9437;DHT22;4757;59.334;18.034;2023-06-22T08:53:26;21.70;99.90
9437;DHT22;4757;59.334;18.034;2023-06-22T08:55:53;22.00;99.90
9437;DHT22;4757;59.334;18.034;2023-06-22T08:58:20;22.60;99.90
9437;DHT22;4757;59.334;18.034;2023-06-22T09:00:48;23.00;99.90
9437;DHT22;4757;59.334;18.034;2023-06-22T09:03:15;23.10;99.90
9437;DHT22;4757;59.334;18.034;2023-06-22T09:05:43;23.80;99.90
9437;DHT22;4757;59.334;18.034;2023-06-22T09:08:11;23.80;99.90
9437;DHT22;4757;59.334;18.034;2023-06-22T09:10:38;24.30;99.90
9437;DHT22;4757;59.334;18.034;2023-06-22T09:13:05;24.30;99.90
9437;DHT22;4757;59.334;18.034;2023-06-22T09:15:32;23.90;99.90
9437;DHT22;4757;59.334;18.034;2023-06-22T09:18:01;23.70;99.90
9437;DHT22;4757;59.334;18.034;2023-06-22T09:20:28;23.50;99.90
9437;DHT22;4757;59.334;18.034;2023-06-22T09:22:55;24.00;99.90
9437;DHT22;4757;59.334;18.034;2023-06-22T09:25:22;23.90;99.90
9437;DHT22;4757;59.334;18.034;2023-06-22T09:27:50;24.40;99.90
9437;DHT22;4757;59.334;18.034;2023-06-22T09:30:17;25.10;99.90
9437;DHT22;4757;59.334;18.034;2023-06-22T09:32:44;24.80;99.90
9437;DHT22;4757;59.334;18.034;2023-06-22T09:35:11;25.40;99.90
9437;DHT22;4757;59.334;18.034;2023-06-22T09:37:40;25.30;99.90
9437;DHT22;4757;59.334;18.034;2023-06-22T09:40:08;25.60;99.90
9437;DHT22;4757;59.334;18.034;2023-06-22T09:42:40;25.40;99.90
9437;DHT22;4757;59.334;18.034;2023-06-22T09:45:08;25.50;99.90
9437;DHT22;4757;59.334;18.034;2023-06-22T09:47:36;26.20;99.90
9437;DHT22;4757;59.334;18.034;2023-06-22T09:50:03;26.30;99.90
9437;DHT22;4757;59.334;18.034;2023-06-22T09:52:31;25.70;99.90
9437;DHT22;4757;59.334;18.034;2023-06-22T09:55:14;26.00;99.90
9437;DHT22;4757;59.334;18.034;2023-06-22T09:57:43;25.30;99.90
9437;DHT22;4757;59.334;18.034;2023-06-22T10:00:10;25.80;99.90
9437;DHT22;4757;59.334;18.034;2023-06-22T10:02:41;25.70;99.90
9437;DHT22;4757;59.334;18.034;2023-06-22T10:05:09;26.10;99.90
9437;DHT22;4757;59.334;18.034;2023-06-22T10:07:37;26.10;99.90
9437;DHT22;4757;59.334;18.034;2023-06-22T10:10:13;26.40;99.90
9437;DHT22;4757;59.334;18.034;2023-06-22T10:12:54;26.10;99.90
9437;DHT22;4757;59.334;18.034;2023-06-22T10:15:22;26.20;99.90
9437;DHT22;4757;59.334;18.034;2023-06-22T10:17:49;26.40;99.90
9437;DHT22;4757;59.334;18.034;2023-06-22T10:20:16;26.40;99.90
9437;DHT22;4757;59.334;18.034;2023-06-22T10:22:45;26.30;99.90
9437;DHT22;4757;59.334;18.034;2023-06-22T10:25:13;26.30;99.90
9437;DHT22;4757;59.334;18.034;2023-06-22T10:27:40;26.60;99.90
9437;DHT22;4757;59.334;18.034;2023-06-22T10:30:09;27.00;99.90
9437;DHT22;4757;59.334;18.034;2023-06-22T10:32:37;27.20;99.90
9437;DHT22;4757;59.334;18.034;2023-06-22T10:35:05;26.60;99.90
9437;DHT22;4757;59.334;18.034;2023-06-22T10:37:32;26.50;99.90
9437;DHT22;4757;59.334;18.034;2023-06-22T10:39:59;26.80;99.90
9437;DHT22;4757;59.334;18.034;2023-06-22T10:42:26;27.00;99.90
9437;DHT22;4757;59.334;18.034;2023-06-22T10:44:53;26.40;99.90
9437;DHT22;4757;59.334;18.034;2023-06-22T10:47:20;26.80;99.90
9437;DHT22;4757;59.334;18.034;2023-06-22T10:49:48;26.70;99.90
9437;DHT22;4757;59.334;18.034;2023-06-22T10:52:15;26.40;99.90
9437;DHT22;4757;59.334;18.034;2023-06-22T10:54:45;26.50;99.90
9437;DHT22;4757;59.334;18.034;2023-06-22T10:57:12;26.90;99.90
9437;DHT22;4757;59.334;18.034;2023-06-22T10:59:39;27.50;99.90
9437;DHT22;4757;59.334;18.034;2023-06-22T11:02:06;27.40;99.90
9437;DHT22;4757;59.334;18.034;2023-06-22T11:04:33;27.30;99.90
9437;DHT22;4757;59.334;18.034;2023-06-22T11:07:02;27.50;99.90
9437;DHT22;4757;59.334;18.034;2023-06-22T11:09:29;27.40;99.90
9437;DHT22;4757;59.334;18.034;2023-06-22T11:11:56;27.70;99.90
9437;DHT22;4757;59.334;18.034;2023-06-22T11:14:26;27.50;99.90
9437;DHT22;4757;59.334;18.034;2023-06-22T11:16:53;27.60;99.90
9437;DHT22;4757;59.334;18.034;2023-06-22T11:19:20;27.90;99.90
9437;DHT22;4757;59.334;18.034;2023-06-22T11:21:47;28.10;99.90
9437;DHT22;4757;59.334;18.034;2023-06-22T11:24:15;27.70;99.90
9437;DHT22;4757;59.334;18.034;2023-06-22T11:26:43;27.60;99.90
9437;DHT22;4757;59.334;18.034;2023-06-22T11:29:10;27.70;99.90
9437;DHT22;4757;59.334;18.034;2023-06-22T11:31:53;27.90;99.50
9437;DHT22;4757;59.334;18.034;2023-06-22T11:34:20;27.40;99.90
9437;DHT22;4757;59.334;18.034;2023-06-22T11:36:47;27.40;99.70
9437;DHT22;4757;59.334;18.034;2023-06-22T11:39:15;27.90;99.40
9437;DHT22;4757;59.334;18.034;2023-06-22T11:41:42;27.90;99.60
9437;DHT22;4757;59.334;18.034;2023-06-22T11:44:09;28.10;99.60
9437;DHT22;4757;59.334;18.034;2023-06-22T11:46:36;28.10;99.10
9437;DHT22;4757;59.334;18.034;2023-06-22T11:49:04;28.00;99.30
9437;DHT22;4757;59.334;18.034;2023-06-22T11:51:31;27.80;98.70
9437;DHT22;4757;59.334;18.034;2023-06-22T11:53:59;27.70;99.20
9437;DHT22;4757;59.334;18.034;2023-06-22T11:56:26;27.50;99.30
9437;DHT22;4757;59.334;18.034;2023-06-22T11:58:54;27.80;99.50
9437;DHT22;4757;59.334;18.034;2023-06-22T12:01:21;27.50;99.30
9437;DHT22;4757;59.334;18.034;2023-06-22T12:03:48;27.30;99.40
9437;DHT22;4757;59.334;18.034;2023-06-22T12:06:16;27.20;99.30
9437;DHT22;4757;59.334;18.034;2023-06-22T12:08:43;27.30;99.50
9437;DHT22;4757;59.334;18.034;2023-06-22T12:11:10;27.10;99.50
9437;DHT22;4757;59.334;18.034;2023-06-22T12:13:37;27.40;99.50
9437;DHT22;4757;59.334;18.034;2023-06-22T12:16:04;27.80;99.60
9437;DHT22;4757;59.334;18.034;2023-06-22T12:18:32;27.20;99.90
9437;DHT22;4757;59.334;18.034;2023-06-22T12:21:02;27.20;99.90
9437;DHT22;4757;59.334;18.034;2023-06-22T12:23:29;27.70;99.60
9437;DHT22;4757;59.334;18.034;2023-06-22T12:25:56;27.60;99.80
9437;DHT22;4757;59.334;18.034;2023-06-22T12:28:24;27.80;99.50
9437;DHT22;4757;59.334;18.034;2023-06-22T12:30:51;28.20;99.50
9437;DHT22;4757;59.334;18.034;2023-06-22T12:33:18;28.00;99.90
9437;DHT22;4757;59.334;18.034;2023-06-22T12:35:45;28.60;99.30
9437;DHT22;4757;59.334;18.034;2023-06-22T12:38:15;28.00;99.20
9437;DHT22;4757;59.334;18.034;2023-06-22T12:40:42;27.90;99.60
9437;DHT22;4757;59.334;18.034;2023-06-22T12:43:09;27.70;99.90
9437;DHT22;4757;59.334;18.034;2023-06-22T12:45:36;28.10;99.60
9437;DHT22;4757;59.334;18.034;2023-06-22T12:48:04;28.10;99.30
9437;DHT22;4757;59.334;18.034;2023-06-22T12:50:31;27.90;99.60
9437;DHT22;4757;59.334;18.034;2023-06-22T12:53:00;28.00;99.70
9437;DHT22;4757;59.334;18.034;2023-06-22T12:55:29;27.80;99.90
9437;DHT22;4757;59.334;18.034;2023-06-22T12:57:56;28.00;99.70
9437;DHT22;4757;59.334;18.034;2023-06-22T13:00:23;28.10;99.60
9437;DHT22;4757;59.334;18.034;2023-06-22T13:02:50;28.20;99.50
9437;DHT22;4757;59.334;18.034;2023-06-22T13:05:20;28.10;99.50
9437;DHT22;4757;59.334;18.034;2023-06-22T13:07:47;27.90;99.90
9437;DHT22;4757;59.334;18.034;2023-06-22T13:10:14;27.90;99.80
9437;DHT22;4757;59.334;18.034;2023-06-22T13:12:41;28.00;99.90
9437;DHT22;4757;59.334;18.034;2023-06-22T13:15:09;27.50;99.90
9437;DHT22;4757;59.334;18.034;2023-06-22T13:17:36;27.90;99.90
9437;DHT22;4757;59.334;18.034;2023-06-22T13:20:04;28.20;99.80
9437;DHT22;4757;59.334;18.034;2023-06-22T13:22:33;28.20;99.90
9437;DHT22;4757;59.334;18.034;2023-06-22T13:25:01;28.30;99.70
9437;DHT22;4757;59.334;18.034;2023-06-22T13:27:29;28.50;99.80
9437;DHT22;4757;59.334;18.034;2023-06-22T13:29:56;28.20;99.70
9437;DHT22;4757;59.334;18.034;2023-06-22T13:32:23;28.40;99.80
9437;DHT22;4757;59.334;18.034;2023-06-22T13:34:51;28.00;99.90
9437;DHT22;4757;59.334;18.034;2023-06-22T13:37:19;28.10;99.90
9437;DHT22;4757;59.334;18.034;2023-06-22T13:39:46;28.10;99.90
9437;DHT22;4757;59.334;18.034;2023-06-22T13:42:13;27.80;99.90
9437;DHT22;4757;59.334;18.034;2023-06-22T13:44:40;28.20;99.80
9437;DHT22;4757;59.334;18.034;2023-06-22T13:47:07;27.80;99.70
9437;DHT22;4757;59.334;18.034;2023-06-22T13:49:35;28.00;99.90
9437;DHT22;4757;59.334;18.034;2023-06-22T13:52:02;28.10;99.50
9437;DHT22;4757;59.334;18.034;2023-06-22T13:54:32;28.40;99.30
9437;DHT22;4757;59.334;18.034;2023-06-22T13:57:02;28.10;99.70
9437;DHT22;4757;59.334;18.034;2023-06-22T13:59:29;28.40;99.50
9437;DHT22;4757;59.334;18.034;2023-06-22T14:01:57;28.80;99.10
9437;DHT22;4757;59.334;18.034;2023-06-22T14:04:24;28.20;99.30
9437;DHT22;4757;59.334;18.034;2023-06-22T14:06:51;28.20;99.60
9437;DHT22;4757;59.334;18.034;2023-06-22T14:09:22;28.20;99.50
9437;DHT22;4757;59.334;18.034;2023-06-22T14:11:49;27.90;99.60
9437;DHT22;4757;59.334;18.034;2023-06-22T14:14:16;28.20;99.20
9437;DHT22;4757;59.334;18.034;2023-06-22T14:16:43;28.40;99.20
9437;DHT22;4757;59.334;18.034;2023-06-22T14:19:11;28.20;99.40
9437;DHT22;4757;59.334;18.034;2023-06-22T14:21:38;28.50;99.40
9437;DHT22;4757;59.334;18.034;2023-06-22T14:24:05;27.80;99.40
9437;DHT22;4757;59.334;18.034;2023-06-22T14:26:32;28.10;99.60
9437;DHT22;4757;59.334;18.034;2023-06-22T14:28:59;28.10;98.90
9437;DHT22;4757;59.334;18.034;2023-06-22T14:31:26;28.10;99.00
9437;DHT22;4757;59.334;18.034;2023-06-22T14:33:53;28.40;99.10
9437;DHT22;4757;59.334;18.034;2023-06-22T14:36:20;28.70;98.90
9437;DHT22;4757;59.334;18.034;2023-06-22T14:38:47;28.30;99.00
9437;DHT22;4757;59.334;18.034;2023-06-22T14:41:14;28.20;99.20
9437;DHT22;4757;59.334;18.034;2023-06-22T14:43:45;28.50;98.90
9437;DHT22;4757;59.334;18.034;2023-06-22T14:46:18;28.20;99.00
9437;DHT22;4757;59.334;18.034;2023-06-22T14:48:46;28.10;98.90
9437;DHT22;4757;59.334;18.034;2023-06-22T14:51:14;28.40;98.80
9437;DHT22;4757;59.334;18.034;2023-06-22T14:53:44;28.60;98.60
9437;DHT22;4757;59.334;18.034;2023-06-22T14:56:12;28.80;98.40
9437;DHT22;4757;59.334;18.034;2023-06-22T14:58:42;28.80;98.20
9437;DHT22;4757;59.334;18.034;2023-06-22T15:01:14;28.60;98.10
9437;DHT22;4757;59.334;18.034;2023-06-22T15:03:41;28.70;98.30
9437;DHT22;4757;59.334;18.034;2023-06-22T15:06:09;28.50;98.10
9437;DHT22;4757;59.334;18.034;2023-06-22T15:08:39;28.50;98.00
9437;DHT22;4757;59.334;18.034;2023-06-22T15:11:07;27.90;98.30
9437;DHT22;4757;59.334;18.034;2023-06-22T15:13:35;28.10;98.40
9437;DHT22;4757;59.334;18.034;2023-06-22T15:16:02;28.10;98.20
9437;DHT22;4757;59.334;18.034;2023-06-22T15:18:31;28.00;98.40
9437;DHT22;4757;59.334;18.034;2023-06-22T15:21:00;28.00;98.60
9437;DHT22;4757;59.334;18.034;2023-06-22T15:23:29;28.10;98.10
9437;DHT22;4757;59.334;18.034;2023-06-22T15:25:57;28.60;97.90
9437;DHT22;4757;59.334;18.034;2023-06-22T15:28:24;28.00;98.40
9437;DHT22;4757;59.334;18.034;2023-06-22T15:30:52;27.70;98.50
9437;DHT22;4757;59.334;18.034;2023-06-22T15:33:19;27.50;98.70
9437;DHT22;4757;59.334;18.034;2023-06-22T15:35:46;27.70;98.50
9437;DHT22;4757;59.334;18.034;2023-06-22T15:38:13;27.60;98.60
9437;DHT22;4757;59.334;18.034;2023-06-22T15:40:41;27.40;98.80
9437;DHT22;4757;59.334;18.034;2023-06-22T15:43:11;27.70;98.50
9437;DHT22;4757;59.334;18.034;2023-06-22T15:45:40;27.90;98.50
9437;DHT22;4757;59.334;18.034;2023-06-22T15:48:07;27.80;98.40
9437;DHT22;4757;59.334;18.034;2023-06-22T15:50:34;27.80;98.30
9437;DHT22;4757;59.334;18.034;2023-06-22T15:53:01;27.60;98.70
9437;DHT22;4757;59.334;18.034;2023-06-22T15:55:28;27.40;98.70